createdAt,value
2023-04-15T00:02:37.425Z,8.48
2023-04-15T00:05:25.673Z,11.00
2023-04-15T00:08:13.933Z,12.35
2023-04-15T00:11:05.870Z,8.68
2023-04-15T00:13:54.456Z,10.35
2023-04-15T00:16:42.594Z,9.80
2023-04-15T00:19:30.829Z,9.67
2023-04-15T00:22:19.173Z,9.63
2023-04-15T00:25:07.484Z,9.60
2023-04-15T00:27:56.924Z,10.98
2023-04-15T00:30:45.379Z,9.65
2023-04-15T00:33:33.517Z,9.27
2023-04-15T00:36:21.564Z,9.10
2023-04-15T00:39:10.107Z,9.80
2023-04-15T00:41:59.224Z,10.15
2023-04-15T00:44:48.688Z,8.73
2023-04-15T00:47:38.971Z,10.97
2023-04-15T00:50:27.020Z,8.25
2023-04-15T00:53:15.058Z,12.52
2023-04-15T00:56:03.174Z,12.32
2023-04-15T00:58:52.650Z,8.82
2023-04-15T01:01:42.594Z,9.63
2023-04-15T01:04:32.126Z,10.70
2023-04-15T01:07:20.496Z,11.32
2023-04-15T01:10:09.884Z,13.20
2023-04-15T01:12:58.035Z,14.40
2023-04-15T01:15:46.635Z,13.10
2023-04-15T01:18:37.652Z,10.77
2023-04-15T01:21:26.639Z,11.75
2023-04-15T01:24:18.672Z,11.70
2023-04-15T01:27:09.075Z,10.23
2023-04-15T01:29:57.601Z,11.17
2023-04-15T01:32:46.147Z,11.32
2023-04-15T01:35:34.554Z,11.30
2023-04-15T01:38:22.791Z,14.95
2023-04-15T01:41:11.267Z,11.23
2023-04-15T01:44:01.878Z,14.70
2023-04-15T01:46:50.304Z,12.73
2023-04-15T01:49:38.484Z,11.10
2023-04-15T01:52:26.657Z,12.07
2023-04-15T01:55:15.013Z,12.80
2023-04-15T01:58:03.113Z,11.83
2023-04-15T02:00:52.601Z,10.88
2023-04-15T02:03:40.656Z,11.27
2023-04-15T02:06:29.285Z,11.07
2023-04-15T02:09:17.772Z,11.55
2023-04-15T02:12:06.055Z,12.33
2023-04-15T02:14:54.505Z,11.70
2023-04-15T02:17:46.069Z,10.70
2023-04-15T02:20:35.077Z,11.25
2023-04-15T02:23:23.190Z,11.32
2023-04-15T02:26:12.038Z,10.43
2023-04-15T02:29:00.788Z,11.25
2023-04-15T02:31:49.395Z,12.95
2023-04-15T02:34:41.259Z,11.77
2023-04-15T02:37:30.500Z,11.98
2023-04-15T02:40:19.794Z,12.80
2023-04-15T02:43:08.253Z,9.30
2023-04-15T02:45:57.094Z,10.98
2023-04-15T02:48:45.412Z,12.00
2023-04-15T02:51:35.016Z,14.05
2023-04-15T02:54:23.878Z,13.13
2023-04-15T02:57:12.953Z,12.70
2023-04-15T03:00:01.130Z,15.00
2023-04-15T03:02:52.510Z,12.80
2023-04-15T03:05:41.067Z,14.23
2023-04-15T03:08:30.689Z,13.90
2023-04-15T03:11:19.207Z,12.20
2023-04-15T03:14:07.435Z,12.30
2023-04-15T03:16:56.276Z,15.10
2023-04-15T03:19:45.267Z,14.02
2023-04-15T03:22:33.629Z,11.47
2023-04-15T03:25:23.037Z,13.63
2023-04-15T03:28:11.114Z,12.57
2023-04-15T03:30:59.389Z,13.60
2023-04-15T03:33:47.758Z,12.65
2023-04-15T03:36:35.962Z,13.07
2023-04-15T03:39:24.319Z,12.57
2023-04-15T03:42:24.743Z,12.50
2023-04-15T03:45:13.153Z,12.95
2023-04-15T03:48:15.542Z,14.00
2023-04-15T03:51:05.199Z,10.90
2023-04-15T03:53:53.431Z,12.52
2023-04-15T03:56:41.894Z,12.25
2023-04-15T03:59:31.372Z,13.75
2023-04-15T04:02:19.610Z,13.35
2023-04-15T04:05:08.360Z,14.77
2023-04-15T04:07:56.457Z,13.93
2023-04-15T04:10:44.598Z,13.43
2023-04-15T04:13:32.930Z,13.63
2023-04-15T04:16:22.442Z,14.18
2023-04-15T04:19:10.831Z,12.40
2023-04-15T04:21:58.930Z,12.45
2023-04-15T04:24:46.989Z,14.38
2023-04-15T04:27:35.125Z,13.10
2023-04-15T04:30:23.261Z,13.70
2023-04-15T04:33:12.882Z,13.37
2023-04-15T04:36:01.035Z,14.75
2023-04-15T04:38:49.705Z,14.48
2023-04-15T04:41:39.308Z,12.32
2023-04-15T04:44:27.454Z,12.35
2023-04-15T04:47:15.515Z,15.37
2023-04-15T04:50:05.726Z,15.13
2023-04-15T04:52:56.840Z,14.20
2023-04-15T04:55:45.678Z,16.33
2023-04-15T04:58:33.632Z,14.18
2023-04-15T05:01:22.088Z,14.37
2023-04-15T05:04:10.612Z,14.43
2023-04-15T05:07:00.776Z,15.75
2023-04-15T05:09:48.897Z,17.27
2023-04-15T05:12:37.409Z,15.95
2023-04-15T05:15:25.733Z,14.57
2023-04-15T05:18:14.040Z,15.48
2023-04-15T05:21:02.319Z,14.85
2023-04-15T05:23:51.690Z,14.77
2023-04-15T05:26:39.767Z,14.88
2023-04-15T05:29:27.934Z,13.87
2023-04-15T05:32:16.007Z,15.90
2023-04-15T05:35:04.383Z,15.68
2023-04-15T05:37:56.592Z,15.25
2023-04-15T05:40:45.936Z,20.13
2023-04-15T05:43:34.193Z,13.80
2023-04-15T05:46:25.032Z,14.52
2023-04-15T05:49:15.656Z,15.05
2023-04-15T05:52:04.445Z,16.40
2023-04-15T05:54:54.316Z,16.98
2023-04-15T05:57:44.088Z,15.90
2023-04-15T06:00:38.057Z,15.13
2023-04-15T06:03:26.502Z,12.18
2023-04-15T06:06:15.477Z,14.30
2023-04-15T06:09:03.733Z,14.38
2023-04-15T06:11:53.155Z,15.73
2023-04-15T06:14:43.016Z,14.48
2023-04-15T06:17:31.442Z,14.52
2023-04-15T06:20:20.224Z,14.27
2023-04-15T06:23:08.362Z,14.40
2023-04-15T06:25:56.361Z,14.63
2023-04-15T06:28:45.946Z,13.75
2023-04-15T06:31:41.361Z,13.43
2023-04-15T06:34:32.391Z,12.95
2023-04-15T06:37:20.827Z,13.48
2023-04-15T06:40:11.175Z,14.67
2023-04-15T06:43:00.904Z,14.35
2023-04-15T06:45:53.795Z,15.20
2023-04-15T06:48:43.341Z,16.27
2023-04-15T06:51:31.663Z,12.82
2023-04-15T06:54:20.006Z,16.17
2023-04-15T06:57:12.051Z,14.65
2023-04-15T07:00:01.017Z,14.52
2023-04-15T07:02:49.477Z,12.98
2023-04-15T07:05:39.420Z,13.65
2023-04-15T07:08:27.357Z,13.47
2023-04-15T07:11:16.399Z,13.35
2023-04-15T07:14:04.867Z,13.77
2023-04-15T07:16:55.734Z,12.48
2023-04-15T07:19:44.189Z,13.05
2023-04-15T07:22:34.407Z,14.33
2023-04-15T07:25:22.926Z,14.77
2023-04-15T07:28:11.499Z,12.82
2023-04-15T07:31:04.810Z,13.10
2023-04-15T07:33:53.317Z,12.23
2023-04-15T07:36:41.510Z,13.60
2023-04-15T07:39:30.955Z,13.88
2023-04-15T07:42:27.073Z,13.98
2023-04-15T07:45:18.645Z,12.27
2023-04-15T07:48:08.360Z,13.32
2023-04-15T07:50:56.474Z,13.00
2023-04-15T07:53:44.546Z,13.88
2023-04-15T07:56:35.544Z,11.27
2023-04-15T07:59:23.695Z,13.90
2023-04-15T08:02:16.151Z,15.18
2023-04-15T08:05:04.566Z,14.07
2023-04-15T08:07:53.245Z,13.48
2023-04-15T08:10:42.232Z,12.23
2023-04-15T08:13:33.967Z,12.25
2023-04-15T08:16:24.688Z,13.18
2023-04-15T08:19:18.857Z,14.93
2023-04-15T08:22:10.948Z,13.68
2023-04-15T08:25:06.870Z,13.07
2023-04-15T08:28:10.867Z,12.10
2023-04-15T08:31:00.616Z,13.43
2023-04-15T08:33:49.185Z,13.70
2023-04-15T08:36:37.312Z,11.68
2023-04-15T08:39:26.068Z,13.27
2023-04-15T08:42:18.741Z,11.43
2023-04-15T08:45:11.148Z,10.75
2023-04-15T08:48:04.105Z,9.77
2023-04-15T08:50:53.721Z,10.18
2023-04-15T08:53:42.028Z,9.57
2023-04-15T08:56:33.638Z,9.45
2023-04-15T08:59:22.767Z,10.60
2023-04-15T09:02:10.871Z,9.77
2023-04-15T09:05:01.025Z,10.55
2023-04-15T09:07:49.056Z,10.65
2023-04-15T09:10:37.143Z,10.55
2023-04-15T09:13:25.484Z,9.18
2023-04-15T09:16:15.569Z,9.80
2023-04-15T09:19:22.017Z,10.02
2023-04-15T09:22:11.466Z,9.30
2023-04-15T09:25:04.641Z,9.90
2023-04-15T09:27:53.955Z,9.65
2023-04-15T09:30:49.149Z,9.20
2023-04-15T09:33:56.091Z,9.25
2023-04-15T09:36:55.096Z,9.30
2023-04-15T09:39:55.504Z,9.75
2023-04-15T09:42:57.204Z,10.02
2023-04-15T09:45:49.999Z,7.70
2023-04-15T09:48:38.062Z,8.15
2023-04-15T09:51:37.775Z,9.68
2023-04-15T09:54:25.984Z,8.43
2023-04-15T09:57:15.968Z,8.75
2023-04-15T10:00:05.170Z,8.40
2023-04-15T10:02:55.597Z,8.02
2023-04-15T10:05:44.242Z,8.38
2023-04-15T10:08:34.817Z,7.95
2023-04-15T10:11:25.743Z,8.48
2023-04-15T10:14:17.494Z,8.10
2023-04-15T10:17:07.070Z,8.45
2023-04-15T10:19:56.523Z,5.97
2023-04-15T10:22:47.863Z,5.82
2023-04-15T10:25:36.216Z,7.03
2023-04-15T10:28:28.054Z,6.53
2023-04-15T10:31:20.450Z,5.82
2023-04-15T10:34:09.746Z,5.68
2023-04-15T10:36:58.705Z,6.30
2023-04-15T10:39:46.792Z,6.05
2023-04-15T10:42:38.682Z,6.00
2023-04-15T10:45:30.714Z,5.88
2023-04-15T10:48:20.544Z,6.25
2023-04-15T10:51:10.948Z,7.25
2023-04-15T10:54:00.913Z,7.57
2023-04-15T10:56:52.802Z,6.30
2023-04-15T11:00:02.904Z,5.38
2023-04-15T11:02:54.652Z,6.80
2023-04-15T11:05:53.985Z,5.95
2023-04-15T11:08:56.094Z,7.43
2023-04-15T11:12:06.686Z,7.10
2023-04-15T11:14:55.007Z,6.07
2023-04-15T11:17:45.278Z,5.38
2023-04-15T11:20:41.133Z,5.00
2023-04-15T11:23:33.273Z,6.00
2023-04-15T11:26:27.378Z,6.40
2023-04-15T11:29:19.006Z,5.20
2023-04-15T11:32:08.223Z,5.13
2023-04-15T11:34:56.682Z,6.05
2023-04-15T11:37:44.938Z,5.30
2023-04-15T11:40:35.482Z,5.57
2023-04-15T11:43:25.117Z,7.20
2023-04-15T11:46:13.704Z,6.65
2023-04-15T11:49:04.689Z,6.38
2023-04-15T11:51:55.877Z,6.80
2023-04-15T11:54:44.343Z,9.50
2023-04-15T11:57:35.898Z,8.05
2023-04-15T12:00:24.199Z,9.45
2023-04-15T12:03:33.135Z,8.23
2023-04-15T12:06:22.225Z,7.38
2023-04-15T12:09:12.530Z,8.17
2023-04-15T12:12:00.620Z,10.38
2023-04-15T12:14:56.276Z,7.88
2023-04-15T12:17:51.096Z,7.75
2023-04-15T12:20:45.416Z,6.38
2023-04-15T12:23:37.713Z,6.03
2023-04-15T12:26:30.458Z,6.55
2023-04-15T12:29:21.279Z,6.82
2023-04-15T12:32:12.056Z,6.75
2023-04-15T12:35:00.118Z,8.20
2023-04-15T12:37:48.624Z,6.50
2023-04-15T12:40:36.904Z,8.65
2023-04-15T12:43:25.083Z,7.03
2023-04-15T12:46:13.674Z,9.23
2023-04-15T12:49:03.233Z,7.80
2023-04-15T12:51:52.963Z,6.10
2023-04-15T12:54:41.148Z,7.00
2023-04-15T12:57:29.402Z,8.98
2023-04-15T13:00:17.879Z,7.22
2023-04-15T13:03:07.222Z,5.55
2023-04-15T13:05:57.788Z,7.77
2023-04-15T13:08:57.359Z,7.03
2023-04-15T13:11:46.717Z,4.47
2023-04-15T13:14:35.578Z,5.72
2023-04-15T13:17:23.896Z,5.05
2023-04-15T13:20:12.324Z,6.30
2023-04-15T13:23:02.135Z,6.95
2023-04-15T13:25:50.282Z,8.25
2023-04-15T13:28:41.365Z,7.85
2023-04-15T13:31:29.615Z,4.82
2023-04-15T13:34:18.225Z,7.47
2023-04-15T13:37:08.059Z,6.72
2023-04-15T13:40:09.150Z,7.13
2023-04-15T13:42:58.673Z,7.18
2023-04-15T13:45:47.913Z,6.60
2023-04-15T13:48:36.202Z,6.33
2023-04-15T13:51:24.359Z,5.75
2023-04-15T13:54:12.459Z,6.68
2023-04-15T13:57:02.033Z,6.47
2023-04-15T13:59:50.448Z,9.20
2023-04-15T14:02:38.628Z,6.77
2023-04-15T14:05:27.047Z,9.18
2023-04-15T14:08:15.693Z,5.85
2023-04-15T14:11:03.845Z,6.90
2023-04-15T14:13:53.399Z,8.13
2023-04-15T14:16:41.594Z,6.97
2023-04-15T14:19:31.579Z,6.07
2023-04-15T14:22:19.760Z,5.57
2023-04-15T14:25:08.568Z,5.60
2023-04-15T14:27:56.643Z,6.80
2023-04-15T14:30:46.008Z,5.33
2023-04-15T14:33:34.075Z,9.05
2023-04-15T14:36:22.436Z,11.18
2023-04-15T14:39:10.466Z,8.13
2023-04-15T14:41:58.617Z,5.63
2023-04-15T14:44:47.057Z,7.30
2023-04-15T14:47:36.900Z,7.00
2023-04-15T14:50:24.935Z,7.65
2023-04-15T14:53:12.975Z,6.95
2023-04-15T14:56:01.504Z,8.93
2023-04-15T14:58:50.394Z,6.17
2023-04-15T15:01:38.692Z,8.30
2023-04-15T15:04:28.555Z,5.50
2023-04-15T15:07:16.792Z,7.35
2023-04-15T15:10:06.101Z,6.13
2023-04-15T15:12:54.359Z,7.30
2023-04-15T15:15:43.109Z,6.90
2023-04-15T15:18:31.370Z,6.28
2023-04-15T15:21:20.866Z,7.45
2023-04-15T15:24:09.228Z,8.30
2023-04-15T15:26:58.202Z,6.23
2023-04-15T15:29:49.819Z,7.97
2023-04-15T15:32:39.301Z,6.07
2023-04-15T15:35:33.803Z,5.88
2023-04-15T15:38:24.650Z,5.60
2023-04-15T15:41:13.525Z,7.43
2023-04-15T15:44:01.980Z,7.50
2023-04-15T15:46:51.429Z,6.65
2023-04-15T15:49:41.118Z,7.05
2023-04-15T15:52:29.493Z,8.80
2023-04-15T15:55:20.612Z,5.80
2023-04-15T15:58:08.662Z,6.03
2023-04-15T16:00:57.003Z,7.38
2023-04-15T16:03:45.337Z,9.95
2023-04-15T16:06:34.980Z,8.23
2023-04-15T16:09:23.477Z,6.70
2023-04-15T16:12:13.084Z,9.93
2023-04-15T16:15:01.138Z,6.55
2023-04-15T16:17:49.579Z,6.65
2023-04-15T16:20:38.890Z,5.63
2023-04-15T16:23:26.917Z,7.27
2023-04-15T16:26:15.053Z,6.80
2023-04-15T16:29:05.518Z,10.52
2023-04-15T16:31:53.685Z,7.93
2023-04-15T16:34:41.964Z,6.07
2023-04-15T16:37:36.847Z,5.93
2023-04-15T16:43:37.268Z,6.95
2023-04-15T16:46:26.867Z,5.80
2023-04-15T16:49:14.964Z,7.22
2023-04-15T16:52:05.482Z,5.70
2023-04-15T16:54:53.561Z,6.65
2023-04-15T16:58:01.525Z,6.25
2023-04-15T17:00:49.749Z,6.10
2023-04-15T17:03:40.054Z,6.60
2023-04-15T17:06:28.340Z,4.63
2023-04-15T17:09:30.382Z,9.52
2023-04-15T17:12:19.059Z,5.75
2023-04-15T17:15:08.647Z,4.65
2023-04-15T17:17:56.794Z,8.30
2023-04-15T17:20:46.316Z,5.40
2023-04-15T17:23:34.421Z,5.57
2023-04-15T17:26:22.967Z,8.27
2023-04-15T17:29:11.694Z,6.38
2023-04-15T17:31:59.796Z,5.68
2023-04-15T17:34:50.044Z,6.43
2023-04-15T17:37:40.426Z,5.80
2023-04-15T17:40:28.767Z,7.32
2023-04-15T17:43:16.971Z,4.82
2023-04-15T17:46:05.365Z,6.18
2023-04-15T17:48:53.466Z,8.27
2023-04-15T17:51:41.543Z,9.40
2023-04-15T17:54:30.881Z,4.05
2023-04-15T17:57:19.000Z,5.82
2023-04-15T18:00:10.166Z,4.75
2023-04-15T18:02:58.599Z,3.87
2023-04-15T18:05:47.221Z,4.65
2023-04-15T18:08:35.368Z,6.30
2023-04-15T18:11:25.443Z,5.38
2023-04-15T18:14:15.674Z,6.40
2023-04-15T18:17:13.495Z,5.30
2023-04-15T18:20:01.760Z,5.43
2023-04-15T18:22:50.635Z,7.05
2023-04-15T18:25:39.070Z,4.55
2023-04-15T18:28:29.456Z,5.97
2023-04-15T18:31:17.638Z,7.47
2023-04-15T18:34:07.430Z,4.53
2023-04-15T18:36:56.928Z,5.93
2023-04-15T18:39:45.077Z,6.78
2023-04-15T18:42:33.066Z,5.63
2023-04-15T18:45:23.148Z,7.03
2023-04-15T18:48:11.457Z,5.60
2023-04-15T18:50:59.584Z,6.68
2023-04-15T18:53:47.854Z,5.60
2023-04-15T18:56:36.474Z,5.53
2023-04-15T18:59:29.318Z,5.00
2023-04-15T19:02:21.003Z,4.10
2023-04-15T19:05:10.164Z,5.18
2023-04-15T19:07:59.676Z,4.63
2023-04-15T19:10:48.061Z,3.85
2023-04-15T19:13:36.197Z,6.70
2023-04-15T19:16:24.340Z,3.90
2023-04-15T19:19:14.605Z,8.73
2023-04-15T19:22:03.389Z,5.25
2023-04-15T19:24:52.153Z,5.13
2023-04-15T19:27:40.805Z,4.43
2023-04-15T19:30:28.906Z,4.25
2023-04-15T19:33:17.667Z,5.47
2023-04-15T19:36:08.631Z,11.55
2023-04-15T19:38:56.574Z,6.68
2023-04-15T19:41:44.863Z,5.53
2023-04-15T19:44:33.049Z,6.45
2023-04-15T19:47:21.139Z,5.35
2023-04-15T19:50:11.277Z,4.78
2023-04-15T19:53:00.929Z,3.72
2023-04-15T19:55:49.409Z,5.33
2023-04-15T19:58:37.604Z,5.50
2023-04-15T20:01:25.751Z,5.28
2023-04-15T20:04:14.086Z,3.50
2023-04-15T20:07:02.362Z,6.80
2023-04-15T20:09:52.093Z,7.07
2023-04-15T20:12:51.426Z,4.25
2023-04-15T20:15:41.323Z,6.80
2023-04-15T20:18:29.442Z,3.03
2023-04-15T20:21:17.748Z,3.80
2023-04-15T20:24:07.085Z,4.70
2023-04-15T20:26:57.736Z,5.45
2023-04-15T20:29:46.049Z,5.63
2023-04-15T20:32:35.869Z,5.07
2023-04-15T20:35:28.010Z,4.03
2023-04-15T20:38:32.040Z,4.67
2023-04-15T20:41:48.205Z,4.53
2023-04-15T20:44:47.387Z,5.38
2023-04-15T20:47:55.741Z,3.85
2023-04-15T20:50:44.950Z,6.20
2023-04-15T20:53:38.235Z,4.53
2023-04-15T20:56:33.395Z,3.83
2023-04-15T20:59:29.216Z,6.13
2023-04-15T21:02:31.572Z,3.65
2023-04-15T21:05:31.343Z,4.30
2023-04-15T21:08:34.747Z,4.53
2023-04-15T21:12:07.703Z,3.60
2023-04-15T21:14:54.297Z,4.07
2023-04-15T21:17:43.797Z,4.55
2023-04-15T21:23:41.728Z,2.57
2023-04-15T21:26:30.016Z,5.28
2023-04-15T21:29:18.097Z,3.90
2023-04-15T21:32:06.277Z,4.63
2023-04-15T21:34:55.758Z,3.00
2023-04-15T21:38:07.830Z,5.30
2023-04-15T21:40:57.574Z,4.40
2023-04-15T21:43:49.480Z,5.25
2023-04-15T21:46:37.523Z,4.95
2023-04-15T21:49:27.463Z,6.93
2023-04-15T21:52:18.050Z,3.40
2023-04-15T21:55:08.291Z,3.05
2023-04-15T21:57:56.507Z,4.15
2023-04-15T22:00:52.733Z,4.43
2023-04-15T22:03:41.350Z,4.18
2023-04-15T22:06:29.555Z,4.80
2023-04-15T22:09:19.327Z,6.75
2023-04-15T22:12:07.890Z,4.13
2023-04-15T22:14:57.169Z,4.72
2023-04-15T22:17:45.434Z,3.22
2023-04-15T22:20:33.810Z,5.10
2023-04-15T22:23:22.691Z,7.28
2023-04-15T22:26:12.124Z,2.90
2023-04-15T22:29:00.367Z,6.00
2023-04-15T22:31:48.655Z,4.60
2023-04-15T22:34:36.958Z,4.53
2023-04-15T22:37:25.800Z,6.10
2023-04-15T22:40:14.269Z,4.70
2023-04-15T22:43:03.799Z,6.25
2023-04-15T22:45:53.054Z,4.45
2023-04-15T22:48:42.522Z,5.00
2023-04-15T22:51:32.017Z,3.00
2023-04-15T22:54:20.777Z,5.20
2023-04-15T22:57:09.448Z,5.25
2023-04-15T22:59:59.197Z,3.53
2023-04-15T23:02:47.709Z,6.37
2023-04-15T23:05:36.061Z,3.33
2023-04-15T23:08:25.119Z,7.07
2023-04-15T23:11:21.967Z,4.53
2023-04-15T23:14:10.722Z,4.15
2023-04-15T23:17:01.076Z,5.20
2023-04-15T23:19:52.620Z,5.15
2023-04-15T23:22:42.054Z,4.15
2023-04-15T23:25:32.184Z,6.65
2023-04-15T23:28:22.629Z,9.10
2023-04-15T23:31:11.270Z,6.13
2023-04-15T23:34:00.945Z,5.10
2023-04-15T23:36:59.424Z,6.07
2023-04-15T23:40:09.295Z,5.20
2023-04-15T23:42:57.304Z,6.63
2023-04-15T23:45:45.427Z,8.60
2023-04-15T23:48:33.655Z,6.43
2023-04-15T23:51:23.454Z,6.80
2023-04-15T23:54:11.865Z,6.93
2023-04-15T23:56:59.994Z,6.78
2023-04-15T23:59:55.623Z,6.50
